Time;durP1;ratioP1;P1;durP2;ratioP2;P2;SDS_P1;SDS_P2;PMS_P1;PMS_P2;Temp;Humidity;BMP_temperature;BMP_pressure;BME280_temperature;BME280_humidity;BME280_pressure;Samples;Min_cycle;Max_cycle;Signal;HPM_P1;HPM_P2
2022/05/21 00:01:47;;;;;;;3.53;2.27;;;21.40;84.60;;;21.84;52.76;99057.16;4989375;28;123666;-91
2022/05/21 00:04:32;;;;;;;2.47;2.27;;;21.40;84.80;;;21.78;52.79;99051.06;4983044;28;109216;-90
2022/05/21 00:06:58;;;;;;;3.20;2.03;;;21.30;84.90;;;21.73;52.96;99057.03;4991851;28;109276;-91
2022/05/21 00:09:27;;;;;;;2.30;2.10;;;21.30;85.00;;;21.69;53.03;99061.00;4994235;28;124770;-91
2022/05/21 00:12:01;;;;;;;4.00;2.53;;;21.20;85.00;;;21.61;53.47;99066.50;5000943;28;123187;-89
2022/05/21 00:14:27;;;;;;;3.47;2.53;;;21.20;85.10;;;21.54;53.20;99069.22;4978788;28;109480;-90
2022/05/21 00:16:54;;;;;;;5.40;2.50;;;21.10;85.20;;;21.50;53.27;99065.56;4968444;28;110122;-89
2022/05/21 00:19:20;;;;;;;2.97;2.20;;;21.10;85.20;;;21.49;53.45;99071.53;4964292;28;123491;-91
2022/05/21 00:21:47;;;;;;;3.57;2.60;;;21.10;85.40;;;21.42;53.56;99069.44;4983111;28;123089;-91
2022/05/21 00:24:14;;;;;;;2.97;2.67;;;21.00;85.40;;;21.37;53.86;99078.16;4981553;28;109067;-91
2022/05/21 00:26:40;;;;;;;3.27;2.70;;;21.00;85.60;;;21.30;53.70;99084.47;4963108;28;108272;-89
2022/05/21 00:29:07;;;;;;;3.30;2.40;;;20.90;85.50;;;21.24;53.94;99088.81;4985851;28;123657;-93
2022/05/21 00:31:34;;;;;;;3.07;2.00;;;20.80;85.60;;;21.16;53.78;99089.88;4978578;28;124413;-90
2022/05/21 00:34:01;;;;;;;4.20;2.20;;;20.80;85.60;;;21.10;53.77;99089.38;4992075;28;109147;-91
2022/05/21 00:36:29;;;;;;;3.50;1.90;;;20.70;85.50;;;21.07;53.77;99086.53;4998868;28;107190;-92
2022/05/21 00:38:56;;;;;;;2.63;2.33;;;22.50;87.10;;;21.02;53.27;99090.47;4980818;28;124382;-91
2022/05/21 00:41:22;;;;;;;5.80;2.50;;;20.60;85.90;;;20.93;53.37;99092.72;4979851;28;123706;-91
2022/05/21 00:43:55;;;;;;;3.57;2.37;;;20.50;85.00;;;20.88;53.72;99095.84;4989370;28;109531;-92
2022/05/21 00:46:35;;;;;;;3.00;2.30;;;20.50;85.80;;;20.84;53.82;99100.56;5006466;28;108875;-91
2022/05/21 00:49:07;;;;;;;2.93;2.60;;;20.50;85.10;;;20.81;53.37;99096.50;4997379;28;124100;-92
2022/05/21 00:52:10;;;;;;;2.77;2.17;;;20.40;85.00;;;20.79;53.50;99098.88;4967016;28;123935;-92
2022/05/21 00:54:43;;;;;;;3.27;2.03;;;20.40;84.90;;;20.76;53.52;99101.63;4985077;28;109260;-90
2022/05/21 00:57:35;;;;;;;2.90;2.50;;;20.30;84.80;;;20.67;53.50;99102.69;4984213;28;109446;-90
2022/05/21 01:00:16;;;;;;;2.13;1.90;;;20.30;84.70;;;20.63;53.28;99112.22;4962956;28;123953;-90
2022/05/21 01:02:56;;;;;;;5.17;2.50;;;20.30;84.90;;;20.57;53.66;99097.69;4975430;28;122561;-91
2022/05/21 01:05:26;;;;;;;2.83;1.90;;;20.20;84.80;;;20.52;53.47;99100.75;4992263;28;110550;-90
2022/05/21 01:07:58;;;;;;;3.73;2.40;;;20.20;84.90;;;20.51;53.61;99111.16;5002444;28;109889;-91
2022/05/21 01:10:33;;;;;;;3.47;2.20;;;20.10;84.80;;;20.47;53.84;99106.66;4970102;28;122727;-92
2022/05/21 01:13:02;;;;;;;4.70;2.23;;;20.10;85.00;;;20.41;53.65;99117.38;4982917;28;124710;-91
2022/05/21 01:15:35;;;;;;;3.07;2.03;;;20.00;85.00;;;20.33;53.92;99118.44;4999702;28;106395;-91
2022/05/21 01:18:05;;;;;;;2.10;1.90;;;20.00;85.00;;;20.25;53.92;99119.47;4991877;28;108082;-92
2022/05/21 01:20:44;;;;;;;3.60;2.20;;;19.90;84.90;;;20.20;53.66;99126.22;4989141;28;124704;-91
2022/05/21 01:23:12;;;;;;;4.10;2.00;;;19.80;84.80;;;20.13;53.91;99128.84;4988241;28;123874;-91
2022/05/21 01:25:41;;;;;;;2.10;1.90;;;19.80;85.00;;;20.09;53.76;99116.72;4995810;28;108273;-91
2022/05/21 01:28:12;;;;;;;2.53;2.00;;;19.70;84.70;;;20.07;53.61;99133.94;4992455;28;109730;-92
2022/05/21 01:30:41;;;;;;;2.03;1.70;;;19.70;84.70;;;20.06;53.60;99126.69;5007282;28;123318;-90
2022/05/21 01:33:11;;;;;;;1.70;1.60;;;19.70;84.80;;;20.06;53.50;99128.69;4981472;28;124473;-92
2022/05/21 01:35:40;;;;;;;2.67;1.90;;;19.70;84.70;;;20.03;53.51;99130.22;4994235;28;108910;-90
2022/05/21 01:38:08;;;;;;;4.00;1.70;;;19.60;84.50;;;19.98;53.60;99132.53;4982775;28;109219;-92
2022/05/21 01:40:36;;;;;;;6.73;2.20;;;19.60;84.30;;;19.95;53.15;99133.25;4977452;28;124038;-91
2022/05/21 01:45:52;;;;;;;1.90;1.70;;;19.50;84.00;;;19.84;53.06;99145.03;4981660;28;109763;-91
2022/05/21 01:48:25;;;;;;;3.00;2.03;;;19.40;84.00;;;19.81;53.27;99150.59;4985394;28;109101;-92
2022/05/21 01:50:53;;;;;;;3.10;1.80;;;19.40;84.00;;;19.79;53.26;99155.75;4954837;28;123680;-91
2022/05/21 01:53:23;;;;;;;2.60;1.90;;;19.40;84.00;;;19.76;53.17;99165.69;4967557;28;123724;-91
2022/05/21 01:55:50;;;;;;;1.70;1.60;;;19.40;84.00;;;19.75;53.04;99175.28;4975169;28;110509;-91
2022/05/21 01:58:17;;;;;;;1.70;1.60;;;19.30;84.00;;;19.75;53.15;99180.91;4982047;28;109671;-91
2022/05/21 02:00:44;;;;;;;1.87;1.67;;;19.30;83.90;;;19.73;53.08;99176.84;4989164;28;124890;-90
2022/05/21 02:03:13;;;;;;;1.70;1.50;;;19.30;83.90;;;19.67;53.07;99179.09;4973377;28;123873;-91
2022/05/21 02:05:39;;;;;;;3.93;2.23;;;19.30;83.90;;;19.64;53.14;99183.41;4983560;28;108422;-91
2022/05/21 02:08:06;;;;;;;4.50;2.33;;;19.20;83.90;;;19.63;52.98;99189.38;4992747;28;108210;-93
2022/05/21 02:10:33;;;;;;;2.00;1.57;;;19.20;83.80;;;19.62;52.74;99187.75;4973795;28;123190;-92
2022/05/21 02:13:02;;;;;;;2.33;1.60;;;19.20;83.70;;;19.60;53.11;99193.72;4977122;28;125159;-92
2022/05/21 02:15:30;;;;;;;2.10;1.90;;;19.20;83.80;;;19.58;53.08;99193.25;4975562;28;109179;-92
2022/05/21 02:17:57;;;;;;;2.10;1.90;;;19.10;83.60;;;19.57;53.01;99202.84;4970667;28;108848;-92
2022/05/21 02:20:23;;;;;;;1.90;1.70;;;19.20;83.70;;;19.54;52.69;99202.78;4972494;28;123190;-91
2022/05/21 02:22:50;;;;;;;1.70;1.57;;;19.10;83.50;;;19.54;52.78;99211.19;4989521;28;122618;-91
2022/05/21 02:25:16;;;;;;;3.80;1.50;;;19.10;83.50;;;19.56;52.90;99211.66;4993932;28;108524;-91
2022/05/21 02:27:44;;;;;;;2.57;1.60;;;19.00;83.40;;;19.57;52.67;99213.25;4972364;28;108735;-91
2022/05/21 02:30:12;;;;;;;1.93;1.30;;;19.20;83.60;;;19.55;52.83;99210.81;4973587;28;124543;-91
2022/05/21 02:32:38;;;;;;;2.00;1.80;;;19.10;83.40;;;19.52;52.81;99211.53;4975328;28;123325;-91
2022/05/21 02:35:05;;;;;;;2.17;1.97;;;19.10;83.50;;;19.47;52.78;99216.59;4977934;28;109184;-90
2022/05/21 02:40:17;;;;;;;2.20;1.73;;;19.00;83.30;;;19.41;52.79;99222.47;5007971;28;123925;-92
2022/05/21 02:42:45;;;;;;;1.50;1.40;;;18.90;83.30;;;19.40;52.75;99222.84;4988583;28;122999;-92
2022/05/21 02:45:25;;;;;;;2.30;2.10;;;18.90;83.40;;;19.36;52.85;99225.53;4974053;28;109844;-92
2022/05/21 02:47:53;;;;;;;4.13;2.50;;;18.90;83.50;;;19.30;53.25;99229.00;4974394;28;109415;-91
2022/05/21 02:50:33;;;;;;;1.90;1.70;;;18.80;83.50;;;19.20;53.16;99233.13;4983344;28;124204;-92
2022/05/21 02:53:03;;;;;;;3.20;2.60;;;18.80;83.70;;;19.07;53.35;99229.56;4962606;28;123823;-91
2022/05/21 02:55:30;;;;;;;2.30;1.90;;;18.70;83.70;;;18.93;53.51;99230.00;4976224;28;109139;-93
2022/05/21 02:57:58;;;;;;;2.30;2.03;;;18.60;83.80;;;18.81;53.72;99232.06;5006021;28;109004;-92
2022/05/21 03:00:28;;;;;;;3.00;2.40;;;18.40;83.80;;;18.71;53.97;99233.34;4988216;28;123878;-92
2022/05/21 03:02:55;;;;;;;2.30;1.83;;;18.40;84.10;;;18.65;53.99;99241.19;5002291;28;123731;-91
2022/05/21 03:05:23;;;;;;;2.20;2.00;;;18.30;84.20;;;18.60;54.03;99241.44;4984895;28;108963;-93
2022/05/21 03:07:52;;;;;;;2.70;2.03;;;18.20;84.20;;;18.57;54.05;99239.34;4990432;28;109025;-90
2022/05/21 03:10:23;;;;;;;2.30;2.10;;;18.20;84.50;;;18.58;54.11;99245.75;4977373;28;124528;-91
2022/05/21 03:13:01;;;;;;;2.80;2.10;;;18.20;84.60;;;18.56;53.92;99248.91;4971261;28;124397;-92
2022/05/21 03:15:34;;;;;;;1.67;1.57;;;18.10;84.50;;;18.54;53.96;99251.28;4994196;28;109890;-91
2022/05/21 03:18:03;;;;;;;2.33;1.80;;;18.10;84.50;;;18.53;53.93;99249.63;4982128;28;108693;-92
2022/05/21 03:20:29;;;;;;;1.70;1.60;;;18.10;84.50;;;18.50;54.00;99256.75;4980845;28;124144;-93
2022/05/21 03:22:56;;;;;;;1.60;1.40;;;18.00;84.40;;;18.50;53.86;99256.75;4973440;28;123801;-93
2022/05/21 03:25:25;;;;;;;1.93;1.73;;;18.10;84.50;;;18.54;53.96;99259.66;4972685;28;109210;-92
2022/05/21 03:27:52;;;;;;;1.43;1.33;;;18.10;84.50;;;18.55;53.81;99264.88;4986573;28;109264;-91
2022/05/21 03:30:25;;;;;;;1.90;1.60;;;18.10;84.50;;;18.58;53.66;99262.56;4984543;28;123356;-92
2022/05/21 03:32:51;;;;;;;2.13;1.60;;;18.10;84.50;;;18.58;53.79;99262.56;4984646;28;123584;-92
2022/05/21 03:35:19;;;;;;;2.47;1.73;;;18.10;84.50;;;18.53;53.72;99260.81;4984275;28;110071;-93
2022/05/21 03:37:48;;;;;;;2.17;1.97;;;18.00;84.30;;;18.46;53.67;99261.44;4992843;28;109323;-92
2022/05/21 03:40:20;;;;;;;2.20;1.70;;;18.00;84.30;;;18.44;53.78;99258.16;4983747;28;124088;-92
2022/05/21 03:42:47;;;;;;;2.10;1.87;;;18.00;84.30;;;18.40;53.82;99254.44;4980551;28;123627;-91
2022/05/21 03:45:15;;;;;;;2.20;2.00;;;17.90;84.20;;;18.31;53.93;99253.75;4978385;28;109109;-92
2022/05/21 03:47:43;;;;;;;1.80;1.70;;;17.90;84.40;;;18.21;53.92;99260.66;4979576;28;108677;-91
2022/05/21 03:50:15;;;;;;;2.17;1.97;;;17.80;84.30;;;18.12;54.11;99268.38;4974284;28;123911;-92
2022/05/21 03:52:42;;;;;;;2.43;1.70;;;17.80;84.40;;;18.06;54.25;99269.78;4971350;28;124073;-92
2022/05/21 03:55:10;;;;;;;2.50;2.30;;;17.60;84.30;;;18.03;54.04;99278.88;4971684;28;108825;-92
2022/05/21 03:57:37;;;;;;;2.33;2.13;;;17.60;84.50;;;17.98;54.42;99279.91;4970979;28;108281;-91
2022/05/21 04:00:08;;;;;;;4.10;2.30;;;17.50;84.50;;;17.94;54.20;99290.16;4964833;28;123071;-91
2022/05/21 04:02:36;;;;;;;2.10;1.80;;;17.50;84.60;;;17.92;54.22;99286.91;5006983;28;123199;-92
2022/05/21 04:05:06;;;;;;;2.50;2.30;;;17.40;84.60;;;17.87;54.30;99293.53;4978781;28;109937;-92
2022/05/21 04:07:33;;;;;;;2.77;2.10;;;17.40;84.60;;;17.83;54.36;99289.00;4972092;28;109041;-93
2022/05/21 04:10:00;;;;;;;2.30;2.07;;;17.40;84.70;;;17.77;54.44;99293.97;4978888;28;123996;-91
2022/05/21 04:12:26;;;;;;;2.40;2.20;;;17.30;84.60;;;17.71;54.38;99287.00;4992375;28;123841;-93
2022/05/21 04:14:53;;;;;;;2.10;1.80;;;17.30;85.40;;;17.67;54.64;99292.44;4981788;28;109300;-92
2022/05/21 04:17:19;;;;;;;3.13;1.90;;;17.20;84.70;;;17.65;54.59;99297.59;4997671;28;109380;-91
2022/05/21 04:19:46;;;;;;;2.90;2.03;;;17.20;84.80;;;17.64;54.76;99295.94;4991543;28;123362;-94
2022/05/21 04:22:12;;;;;;;2.23;2.00;;;17.20;85.00;;;17.63;54.68;99299.09;4979777;28;123571;-92
2022/05/21 04:24:39;;;;;;;2.73;1.70;;;17.20;85.00;;;17.60;54.36;99294.19;4988006;28;111813;-91
2022/05/21 04:27:07;;;;;;;2.07;1.77;;;17.20;85.00;;;17.58;54.57;99293.72;4989962;28;110258;-92
2022/05/21 04:29:36;;;;;;;3.40;2.03;;;17.10;84.90;;;17.50;54.68;99295.47;4985631;28;124103;-93
2022/05/21 04:32:04;;;;;;;1.90;1.70;;;17.10;84.90;;;17.48;54.46;99288.59;4973367;28;124014;-92
2022/05/21 04:34:31;;;;;;;3.53;1.90;;;17.10;84.90;;;17.46;55.02;99291.72;4985671;28;109071;-91
2022/05/21 04:36:57;;;;;;;1.80;1.70;;;17.00;84.90;;;17.43;54.78;99287.63;4980853;28;109095;-91
2022/05/21 04:39:24;;;;;;;3.43;1.90;;;17.10;85.00;;;17.42;54.78;99297.19;4970107;28;124123;-91
2022/05/21 04:41:51;;;;;;;2.63;1.87;;;17.00;85.00;;;17.43;54.61;99293.22;4975015;28;124176;-92
2022/05/21 04:44:17;;;;;;;5.13;1.77;;;17.00;85.00;;;17.45;54.71;99295.69;4986389;28;109307;-91
2022/05/21 04:46:44;;;;;;;2.20;1.53;;;17.00;85.00;;;17.45;54.52;99292.88;4988190;28;108927;-92
2022/05/21 04:49:11;;;;;;;1.67;1.57;;;17.00;85.00;;;17.46;54.64;99297.28;4988485;28;124537;-91
2022/05/21 04:51:38;;;;;;;4.63;2.50;;;17.00;85.10;;;17.50;54.51;99298.25;4995213;28;122459;-91
2022/05/21 04:54:05;;;;;;;2.60;2.13;;;17.00;85.00;;;17.50;54.40;99301.03;4978156;28;109210;-92
2022/05/21 04:56:34;;;;;;;2.80;1.90;;;17.00;84.90;;;17.52;54.29;99306.31;4980272;28;108572;-92
2022/05/21 04:59:00;;;;;;;3.47;2.00;;;17.00;84.70;;;17.51;54.08;99305.47;4987078;28;124167;-92
2022/05/21 05:01:30;;;;;;;4.20;2.00;;;17.00;84.50;;;17.48;54.11;99303.38;4984053;28;123859;-92
2022/05/21 05:03:57;;;;;;;2.20;1.80;;;17.00;84.30;;;17.43;53.89;99301.59;4976319;28;109471;-93
2022/05/21 05:06:24;;;;;;;3.90;2.00;;;17.00;84.10;;;17.41;53.89;99305.94;4994005;28;108744;-92
2022/05/21 05:08:50;;;;;;;1.63;1.40;;;17.00;84.00;;;17.42;53.70;99313.13;4971609;28;123343;-92
2022/05/21 05:11:16;;;;;;;1.90;1.70;;;17.00;83.90;;;17.43;53.59;99304.38;4971358;28;123867;-91
2022/05/21 05:13:43;;;;;;;3.70;2.00;;;17.00;83.70;;;17.44;53.42;99299.66;4969985;28;110116;-92
2022/05/21 05:16:09;;;;;;;2.10;1.70;;;17.00;83.60;;;17.42;53.31;99307.56;4989535;28;109871;-91
2022/05/21 05:18:36;;;;;;;1.87;1.67;;;16.30;82.70;;;17.39;53.30;99316.63;4987899;28;123851;-91
2022/05/21 05:21:03;;;;;;;2.27;1.67;;;17.00;83.20;;;17.38;53.23;99301.00;4987986;28;123004;-92
2022/05/21 05:23:30;;;;;;;1.83;1.63;;;16.90;83.00;;;17.40;53.07;99307.06;4972082;28;109211;-92
2022/05/21 05:25:59;;;;;;;2.67;1.90;;;17.00;82.80;;;17.39;52.66;99303.47;4974372;28;109324;-91
2022/05/21 05:28:27;;;;;;;2.60;2.03;;;16.90;82.30;;;17.37;52.62;99308.56;4976078;28;123951;-92
2022/05/21 05:30:54;;;;;;;2.33;1.80;;;16.90;82.10;;;17.38;52.57;99307.44;4989071;28;124161;-91
2022/05/21 05:33:22;;;;;;;3.57;1.70;;;17.00;82.10;;;17.42;52.64;99313.13;4980570;28;109201;-90
2022/05/21 05:35:50;;;;;;;2.93;1.60;;;17.00;82.00;;;17.46;52.11;99311.25;4960975;28;109225;-91
2022/05/21 05:38:17;;;;;;;2.87;1.73;;;17.00;81.70;;;17.51;51.93;99310.22;4966396;28;124066;-92
2022/05/21 05:40:46;;;;;;;2.80;1.60;;;17.10;81.50;;;17.56;51.73;99313.63;4968426;28;122828;-91
2022/05/21 05:43:16;;;;;;;1.50;1.30;;;17.10;82.10;;;17.62;51.50;99306.66;4959043;28;109294;-91
2022/05/21 05:45:42;;;;;;;2.23;1.80;;;17.10;80.90;;;17.63;51.17;99302.69;4965495;28;109103;-91
2022/05/21 05:48:09;;;;;;;2.60;1.67;;;17.10;80.40;;;17.68;50.97;99315.63;4962949;28;123967;-91
2022/05/21 05:50:35;;;;;;;1.70;1.60;;;17.20;80.40;;;17.72;51.00;99305.38;4959779;28;123919;-91
2022/05/21 05:53:05;;;;;;;1.70;1.40;;;17.20;80.10;;;17.80;50.73;99312.06;4965229;28;108581;-91
2022/05/21 05:55:34;;;;;;;1.90;1.50;;;17.30;80.10;;;17.94;50.83;99306.94;4959020;28;109293;-91
2022/05/21 05:59:48;;;;;;;3.03;1.47;;;17.40;80.10;;;18.07;50.37;99311.34;4968030;28;124075;-90
2022/05/21 06:00:47;;;;;;;1.50;1.40;;;17.50;79.80;;;18.17;50.19;99309.28;4976300;28;123808;-90
2022/05/21 06:03:13;;;;;;;1.60;1.40;;;17.50;79.50;;;18.24;49.72;99309.47;4984068;28;110192;-91
2022/05/21 06:05:40;;;;;;;1.70;1.50;;;17.70;78.90;;;18.28;49.39;99305.63;4972915;28;109899;-90
2022/05/21 06:08:07;;;;;;;3.37;1.60;;;17.70;78.50;;;18.33;48.98;99311.00;4973889;28;124307;-91
2022/05/21 06:10:37;;;;;;;1.93;1.50;;;17.80;77.80;;;18.40;48.77;99306.78;4991834;28;123829;-91
2022/05/21 06:13:05;;;;;;;1.70;1.40;;;17.90;77.90;;;18.49;48.74;99324.28;4989684;28;109079;-91
2022/05/21 06:15:33;;;;;;;1.50;1.40;;;17.90;77.70;;;18.57;48.77;99312.13;4992540;28;108968;-92
2022/05/21 06:18:05;;;;;;;1.43;1.23;;;18.00;77.50;;;18.67;48.43;99316.41;4980044;28;123960;-93
2022/05/21 06:20:32;;;;;;;2.27;1.40;;;18.00;77.20;;;18.73;48.23;99327.00;4972971;28;123312;-91
2022/05/21 06:22:59;;;;;;;2.20;1.30;;;18.20;77.00;;;18.81;47.98;99324.47;4974113;28;109259;-91
2022/05/21 06:25:26;;;;;;;1.70;1.10;;;18.20;76.40;;;18.84;47.26;99330.16;4986829;28;108593;-89
2022/05/21 06:27:53;;;;;;;3.53;1.30;;;18.50;75.80;;;18.89;47.07;99335.50;4981956;28;124138;-90
2022/05/21 06:30:24;;;;;;;2.60;1.40;;;18.30;75.30;;;18.89;46.69;99329.91;4975074;28;123589;-91
2022/05/21 06:32:50;;;;;;;1.93;1.10;;;18.30;74.50;;;18.90;46.58;99331.53;4987515;28;109405;-90
2022/05/21 06:35:19;;;;;;;2.37;1.27;;;18.40;74.20;;;18.90;46.13;99328.72;4974479;28;109053;-89
2022/05/21 06:37:46;;;;;;;1.40;1.30;;;18.40;73.50;;;18.92;45.97;99323.59;4973435;28;123601;-90
2022/05/21 06:40:16;;;;;;;2.10;1.70;;;18.40;73.20;;;18.98;45.73;99326.94;4988949;28;124188;-89
2022/05/21 06:42:43;;;;;;;2.13;1.17;;;18.40;72.90;;;19.05;45.25;99331.94;4970677;28;109379;-89
2022/05/21 06:45:11;;;;;;;1.30;1.17;;;18.50;72.20;;;19.11;45.29;99333.31;4982443;28;108404;-89
2022/05/21 06:47:37;;;;;;;1.50;1.00;;;18.50;72.10;;;19.19;45.17;99333.16;4975169;28;124039;-90
2022/05/21 06:50:06;;;;;;;1.47;1.20;;;18.60;71.90;;;19.29;44.75;99328.22;4970999;28;124423;-92
2022/05/21 06:52:33;;;;;;;1.90;1.37;;;18.70;71.60;;;19.37;44.61;99342.09;4990420;28;109385;-89
2022/05/21 06:55:00;;;;;;;1.30;1.13;;;18.80;71.40;;;19.43;44.08;99329.44;4980211;28;109646;-89
2022/05/21 06:57:28;;;;;;;2.53;1.43;;;18.80;70.50;;;19.49;43.88;99329.97;4973199;28;124009;-90
2022/05/21 06:59:56;;;;;;;1.33;1.20;;;18.90;70.40;;;19.50;43.96;99327.97;4978016;28;121847;-89
2022/05/21 07:02:25;;;;;;;3.00;1.40;;;18.90;69.90;;;19.50;43.46;99334.41;4971699;28;109389;-86
2022/05/21 07:07:43;;;;;;;1.73;1.30;;;19.00;69.30;;;19.61;43.64;99329.06;4982108;28;124033;-89
2022/05/21 07:10:19;;;;;;;1.77;1.10;;;19.00;69.60;;;19.70;43.28;99338.19;4999910;28;125226;-89
2022/05/21 07:12:46;;;;;;;2.17;1.67;;;19.10;69.20;;;19.70;43.16;99332.56;4996557;28;108913;-90
2022/05/21 07:15:14;;;;;;;1.93;1.20;;;19.10;68.50;;;19.70;43.35;99342.97;4989662;28;107036;-90
2022/05/21 07:17:41;;;;;;;1.30;1.00;;;19.10;68.70;;;19.72;43.13;99349.84;4998402;28;123565;-91
2022/05/21 07:20:21;;;;;;;2.33;1.20;;;19.20;68.60;;;19.77;43.15;99341.19;4985314;28;123817;-92
2022/05/21 07:22:49;;;;;;;1.50;1.10;;;19.20;68.70;;;19.82;43.47;99338.06;4987034;28;109236;-91
2022/05/21 07:25:23;;;;;;;2.50;1.20;;;19.30;69.10;;;19.84;43.43;99332.94;4993363;28;108815;-89
2022/05/21 07:27:50;;;;;;;1.70;1.40;;;19.30;69.10;;;19.94;43.43;99333.59;4974742;28;124292;-90
2022/05/21 07:30:19;;;;;;;1.30;1.03;;;19.30;69.30;;;20.02;43.38;99312.94;4998303;28;123362;-90
2022/05/21 07:32:47;;;;;;;1.27;1.00;;;19.40;69.10;;;20.09;43.48;99307.50;4990268;28;109224;-89
2022/05/21 07:35:15;;;;;;;1.90;1.50;;;19.50;69.20;;;20.13;42.90;99322.44;4967508;28;107078;-90
2022/05/21 07:37:42;;;;;;;1.23;1.10;;;19.50;68.50;;;20.11;43.27;99310.75;4984498;28;124408;-90
2022/05/21 07:40:10;;;;;;;1.40;1.13;;;19.60;68.60;;;20.10;42.99;99306.31;4980111;28;123051;-91
2022/05/21 07:42:37;;;;;;;1.27;1.10;;;19.60;68.50;;;20.13;42.58;99308.41;4970562;28;110301;-90
2022/05/21 07:45:11;;;;;;;2.83;1.33;;;19.60;67.40;;;20.15;42.05;99306.06;4972325;28;109670;-89
2022/05/21 07:47:38;;;;;;;1.30;1.20;;;19.60;67.10;;;20.22;42.08;99317.44;4971980;28;123304;-89
2022/05/21 07:50:05;;;;;;;1.30;1.10;;;19.70;67.20;;;20.29;41.26;99314.00;4968287;28;124258;-91
2022/05/21 07:52:32;;;;;;;1.10;1.00;;;19.70;65.90;;;20.31;41.04;99314.44;5005031;28;109048;-91
2022/05/21 07:54:59;;;;;;;2.17;1.10;;;19.70;65.40;;;20.32;40.70;99315.25;4957400;28;108200;-90
2022/05/21 07:57:25;;;;;;;3.13;1.03;;;19.70;64.80;;;20.33;40.82;99337.31;4970866;28;124030;-90
2022/05/21 07:59:52;;;;;;;1.00;0.90;;;19.70;64.70;;;20.38;41.14;99325.00;4990269;28;122839;-90
2022/05/21 08:02:20;;;;;;;2.70;1.17;;;19.80;64.90;;;20.42;40.69;99321.13;4974120;28;109026;-90
2022/05/21 08:04:48;;;;;;;3.43;1.17;;;19.80;64.70;;;20.46;41.04;99326.81;4977251;28;109360;-90
2022/05/21 08:07:15;;;;;;;1.00;0.90;;;19.90;64.90;;;20.50;40.83;99327.72;4973156;28;125054;-91
2022/05/21 08:09:42;;;;;;;1.57;1.00;;;19.90;65.00;;;20.57;40.82;99304.63;4993846;28;122912;-91
2022/05/21 08:12:14;;;;;;;1.73;1.10;;;20.00;64.70;;;20.61;40.40;99316.75;5006730;28;108113;-89
2022/05/21 08:14:42;;;;;;;1.67;0.90;;;20.00;64.00;;;20.62;40.09;99316.38;4985643;28;109150;-89
2022/05/21 08:17:09;;;;;;;2.07;1.20;;;21.40;65.00;;;20.66;40.43;99320.09;4970456;28;123973;-90
2022/05/21 08:19:37;;;;;;;2.40;1.20;;;20.00;63.80;;;20.70;40.05;99298.50;5002288;28;123635;-88
2022/05/21 08:27:34;;;;;;;1.20;0.80;;;20.10;63.20;;;20.73;40.04;99311.00;4986773;28;125129;-89
2022/05/21 08:30:01;;;;;;;1.33;0.90;;;20.20;63.00;;;20.72;39.99;99301.75;4979225;28;124004;-89
2022/05/21 08:32:27;;;;;;;1.53;1.00;;;20.20;62.70;;;20.76;39.73;99301.00;4988185;28;109189;-90
2022/05/21 08:34:54;;;;;;;1.40;1.00;;;20.20;62.50;;;20.78;39.73;99299.47;4985298;28;110312;-92
2022/05/21 08:37:20;;;;;;;1.93;1.17;;;20.20;62.60;;;20.80;39.82;99291.50;4970594;28;124201;-89
2022/05/21 08:39:48;;;;;;;1.97;1.20;;;20.20;62.80;;;20.86;39.91;99294.81;4977285;28;123869;-90
2022/05/21 08:42:29;;;;;;;0.97;0.80;;;20.30;62.80;;;20.87;39.82;99297.25;4990683;28;109395;-89
2022/05/21 08:45:23;;;;;;;1.83;1.00;;;20.30;62.60;;;20.85;39.57;99302.44;4963332;28;109237;-87
2022/05/21 08:48:09;;;;;;;1.10;0.83;;;20.30;62.10;;;20.88;39.54;99298.06;4985520;28;124541;-86
2022/05/21 08:50:45;;;;;;;1.30;1.00;;;20.40;62.10;;;20.95;39.14;99298.19;4972628;28;123122;-84
2022/05/21 08:53:19;;;;;;;2.30;1.10;;;20.40;61.90;;;21.02;39.38;99298.34;4990161;28;109394;-88
2022/05/21 08:55:53;;;;;;;1.63;1.00;;;20.40;61.80;;;21.08;39.15;99310.91;4974744;28;107260;-83
2022/05/21 08:58:54;;;;;;;1.00;0.80;;;20.50;61.40;;;21.06;39.14;99298.41;4982565;28;123538;-89
2022/05/21 09:01:23;;;;;;;1.80;0.90;;;20.50;61.20;;;21.07;39.04;99291.63;4977187;28;123922;-88
2022/05/21 09:03:55;;;;;;;1.20;0.90;;;20.50;61.00;;;21.07;39.13;99288.81;4982278;28;109806;-89
2022/05/21 09:06:54;;;;;;;2.53;0.90;;;20.50;60.90;;;21.09;39.21;99280.81;4972305;28;109018;-88
2022/05/21 09:09:44;;;;;;;1.83;1.10;;;20.60;61.00;;;21.15;38.79;99284.97;4995951;28;123938;-84
2022/05/21 09:12:23;;;;;;;1.43;1.00;;;20.60;61.10;;;21.19;38.74;99278.22;4963375;28;123852;-85
2022/05/21 09:14:57;;;;;;;1.03;0.93;;;20.60;60.70;;;21.27;39.13;99284.78;4972402;28;109725;-85
2022/05/21 09:17:25;;;;;;;1.90;1.20;;;20.70;61.20;;;21.36;39.24;99298.63;4973006;28;109253;-88
2022/05/21 09:20:03;;;;;;;1.60;1.10;;;20.80;61.40;;;21.36;39.06;99278.94;4973323;28;124697;-87
2022/05/21 09:22:30;;;;;;;2.50;1.30;;;20.80;61.90;;;21.37;39.03;99270.16;4976706;28;123177;-86
2022/05/21 09:24:59;;;;;;;2.90;1.43;;;20.80;61.20;;;21.43;39.44;99273.47;4969718;28;109974;-88
2022/05/21 09:27:42;;;;;;;2.50;1.13;;;20.80;61.50;;;21.53;39.66;99261.59;4987522;28;109255;-89
2022/05/21 09:30:33;;;;;;;2.40;1.37;;;20.90;61.90;;;21.64;39.18;99275.06;4996505;28;124142;-89
2022/05/21 09:33:22;;;;;;;2.33;1.20;;;21.00;61.60;;;21.67;39.14;99254.59;4963626;28;124939;-89
2022/05/21 09:35:56;;;;;;;1.63;1.00;;;21.10;61.30;;;21.71;38.98;99267.56;4980598;28;109389;-90
2022/05/21 09:38:36;;;;;;;1.57;0.93;;;21.20;61.10;;;21.73;38.79;99265.16;4978016;28;109426;-89
2022/05/21 09:41:19;;;;;;;2.03;1.33;;;21.20;60.70;;;21.77;38.76;99265.22;4992352;28;123839;-83
2022/05/21 09:46:45;;;;;;;1.93;1.20;;;21.30;61.30;;;21.91;39.06;99257.00;4974939;28;109875;-85
2022/05/21 09:49:30;;;;;;;1.77;1.10;;;21.30;60.90;;;21.94;38.70;99258.25;4989668;28;109646;-84
2022/05/21 09:52:10;;;;;;;2.57;1.00;;;21.30;60.80;;;21.97;39.14;99252.69;4977555;28;123384;-84
2022/05/21 09:54:41;;;;;;;1.33;0.97;;;21.40;60.80;;;21.97;38.31;99254.69;4971146;28;124076;-83
2022/05/21 09:57:31;;;;;;;1.20;1.07;;;22.50;61.50;;;21.95;38.52;99248.63;4974222;28;109141;-83
2022/05/21 10:00:16;;;;;;;1.87;1.10;;;21.40;60.20;;;21.85;38.51;99255.72;4996576;28;109672;-84
2022/05/21 10:02:47;;;;;;;1.43;1.00;;;21.40;59.80;;;21.84;38.66;99254.06;4963871;28;124070;-83
2022/05/21 10:05:22;;;;;;;2.40;0.80;;;21.30;59.80;;;21.86;38.71;99248.88;4993342;28;123541;-84
2022/05/21 10:10:59;;;;;;;1.47;1.10;;;21.40;60.00;;;21.86;38.88;99251.69;4992826;28;110006;-84
2022/05/21 10:13:40;;;;;;;1.40;1.10;;;21.40;60.20;;;21.85;38.39;99255.72;4968469;28;123627;-83
2022/05/21 10:16:29;;;;;;;1.30;1.13;;;21.40;59.90;;;21.85;38.59;99255.72;4970987;28;123839;-83
2022/05/21 10:19:32;;;;;;;1.27;1.00;;;21.40;59.90;;;21.83;38.82;99241.22;4985084;28;109783;-84
2022/05/21 10:22:33;;;;;;;1.37;1.20;;;21.40;60.10;;;21.87;38.88;99230.84;4976086;28;108810;-83
2022/05/21 10:25:07;;;;;;;1.70;1.00;;;21.40;60.40;;;21.96;38.78;99242.63;4963779;28;123093;-84
2022/05/21 10:28:04;;;;;;;1.57;1.17;;;21.40;60.70;;;22.04;39.01;99238.72;4970457;28;123635;-83
2022/05/21 10:31:13;;;;;;;3.07;1.40;;;21.50;60.80;;;22.08;38.83;99240.78;4993445;28;109434;-82
2022/05/21 10:34:17;;;;;;;1.40;1.00;;;21.60;60.40;;;22.13;38.79;99237.66;4981625;28;108844;-83
2022/05/21 10:37:34;;;;;;;3.90;1.40;;;21.60;60.50;;;22.16;38.50;99231.25;5004137;28;125303;-85
2022/05/21 10:40:27;;;;;;;2.20;1.17;;;21.60;59.90;;;22.15;38.58;99224.81;4975790;28;125478;-82
2022/05/21 10:43:22;;;;;;;1.30;0.97;;;21.60;59.80;;;22.14;38.35;99228.84;4980169;28;109950;-85
2022/05/21 10:46:30;;;;;;;1.33;1.17;;;21.70;59.60;;;22.11;38.29;99209.06;4993010;28;109620;-85
2022/05/21 10:49:30;;;;;;;2.20;1.20;;;21.70;59.40;;;22.14;38.58;99216.75;4979608;28;124339;-86
2022/05/21 10:52:04;;;;;;;1.23;1.10;;;21.70;59.50;;;22.15;38.38;99215.56;4979701;28;124342;-86